Time;durP1;ratioP1;P1;durP2;ratioP2;P2;SDS_P1;SDS_P2;PMS_P1;PMS_P2;Temp;Humidity;BMP_temperature;BMP_pressure;BME280_temperature;BME280_humidity;BME280_pressure;Samples;Min_cycle;Max_cycle;Signal;HPM_P1;HPM_P2
2023/05/08 00:02:04;;;;;;;4.35;1.95;;;15.00;99.90;;;;;;5111512;28;20030;-73
2023/05/08 00:04:30;;;;;;;3.72;1.67;;;15.00;99.90;;;;;;5111704;28;20030;-72
2023/05/08 00:06:55;;;;;;;5.00;1.80;;;15.10;99.90;;;;;;5111497;28;20050;-73
2023/05/08 00:09:21;;;;;;;4.13;1.83;;;15.10;99.90;;;;;;5111668;28;20476;-72
2023/05/08 00:11:47;;;;;;;4.05;1.60;;;15.10;99.90;;;;;;5111759;28;20496;-72
2023/05/08 00:14:13;;;;;;;2.78;1.40;;;15.10;99.90;;;;;;5111570;28;20024;-74
2023/05/08 00:16:38;;;;;;;3.35;1.27;;;15.10;99.90;;;;;;5111444;28;20434;-73
2023/05/08 00:19:04;;;;;;;3.67;1.25;;;15.20;99.90;;;;;;5111545;28;20020;-73
2023/05/08 00:21:30;;;;;;;2.58;1.10;;;15.30;99.90;;;;;;5111446;28;20098;-73
2023/05/08 00:23:56;;;;;;;2.17;1.20;;;15.30;99.90;;;;;;5115668;28;20035;-73
2023/05/08 00:26:21;;;;;;;2.60;1.23;;;15.30;99.90;;;;;;5115611;28;20024;-73
2023/05/08 00:28:47;;;;;;;3.30;1.20;;;15.30;99.90;;;;;;5115820;28;20028;-73
2023/05/08 00:31:13;;;;;;;3.17;1.42;;;15.30;99.90;;;;;;5115223;28;20027;-73
2023/05/08 00:33:39;;;;;;;4.65;1.70;;;15.30;99.90;;;;;;5115791;28;20028;-73
2023/05/08 00:36:05;;;;;;;4.35;1.70;;;15.30;99.90;;;;;;5115385;28;20076;-72
2023/05/08 00:38:32;;;;;;;4.35;1.55;;;15.20;99.90;;;;;;5115501;28;20055;-73
2023/05/08 00:40:58;;;;;;;4.93;1.58;;;15.20;99.90;;;;;;5115330;28;20555;-73
2023/05/08 00:43:26;;;;;;;4.05;1.70;;;15.10;99.90;;;;;;5115676;28;20088;-73
2023/05/08 00:45:57;;;;;;;4.93;1.90;;;15.10;99.90;;;;;;5114900;28;20688;-74
2023/05/08 00:48:24;;;;;;;2.58;1.40;;;15.10;99.90;;;;;;5115570;28;20034;-73
2023/05/08 00:50:51;;;;;;;2.72;1.60;;;15.10;99.90;;;;;;5096901;28;20024;-74
2023/05/08 00:53:18;;;;;;;3.80;1.80;;;15.10;99.90;;;;;;5115247;28;20016;-73
2023/05/08 00:55:44;;;;;;;2.80;1.58;;;15.10;99.90;;;;;;5115053;28;20027;-73
2023/05/08 00:58:11;;;;;;;4.78;1.80;;;15.10;99.90;;;;;;5115375;28;20377;-73
2023/05/08 01:00:39;;;;;;;4.65;1.67;;;15.10;99.90;;;;;;5114671;28;20036;-74
2023/05/08 01:03:06;;;;;;;5.88;2.00;;;15.10;99.90;;;;;;5114740;28;20884;-73
2023/05/08 01:05:32;;;;;;;4.15;1.58;;;15.10;99.90;;;;;;5114975;28;20020;-73
2023/05/08 01:07:57;;;;;;;5.45;1.60;;;15.10;99.90;;;;;;5114902;28;20036;-74
2023/05/08 01:10:29;;;;;;;3.80;1.52;;;15.00;99.90;;;;;;5115004;28;20031;-73
2023/05/08 01:13:15;;;;;;;5.32;2.00;;;15.10;99.90;;;;;;5114587;28;20054;-74
2023/05/08 01:15:48;;;;;;;5.50;1.90;;;15.00;99.90;;;;;;5114393;28;20080;-74
2023/05/08 01:18:18;;;;;;;4.28;1.70;;;15.10;99.90;;;;;;5114722;28;20073;-73
2023/05/08 01:20:48;;;;;;;4.18;1.80;;;15.00;99.90;;;;;;5114825;28;20023;-73
2023/05/08 01:23:51;;;;;;;4.78;1.80;;;15.10;99.90;;;;;;5114426;28;20438;-74
2023/05/08 01:26:50;;;;;;;6.32;1.90;;;15.10;99.90;;;;;;5114394;28;20494;-73
2023/05/08 01:30:03;;;;;;;4.90;1.60;;;15.00;99.90;;;;;;5114163;28;20024;-74
2023/05/08 01:32:37;;;;;;;4.18;1.73;;;15.10;99.90;;;;;;5108301;28;20061;-74
2023/05/08 01:35:28;;;;;;;6.55;1.88;;;15.10;99.90;;;;;;5114704;28;20391;-73
2023/05/08 01:38:06;;;;;;;3.53;1.77;;;15.10;99.90;;;;;;5114490;28;20419;-73
2023/05/08 01:40:50;;;;;;;5.78;1.98;;;15.10;99.90;;;;;;5114282;28;20032;-74
2023/05/08 01:43:16;;;;;;;;;;;15.10;99.90;;;;;;5114799;28;20087;-74
2023/05/08 01:45:50;;;;;;;4.78;1.80;;;15.10;99.90;;;;;;5113961;28;19957;-74
2023/05/08 01:48:28;;;;;;;3.38;1.60;;;15.10;99.90;;;;;;5114104;28;20024;-74
2023/05/08 01:51:19;;;;;;;6.88;2.22;;;15.10;99.90;;;;;;5114095;28;20502;-74
2023/05/08 01:53:53;;;;;;;5.63;2.00;;;15.20;99.90;;;;;;5105318;28;20036;-74
2023/05/08 01:56:22;;;;;;;4.97;1.92;;;15.10;99.90;;;;;;5113898;28;20088;-72
2023/05/08 01:58:53;;;;;;;3.95;1.70;;;15.20;99.90;;;;;;5113435;28;20027;-73
2023/05/08 02:01:23;;;;;;;3.60;1.48;;;15.20;99.90;;;;;;5113808;28;20442;-74
2023/05/08 02:03:50;;;;;;;6.25;1.90;;;15.20;99.90;;;;;;5113925;28;20484;-73
2023/05/08 02:06:20;;;;;;;4.35;1.80;;;15.20;99.90;;;;;;5113702;28;20023;-74
2023/05/08 02:08:47;;;;;;;4.57;1.65;;;15.20;99.90;;;;;;5114034;28;20024;-74
2023/05/08 02:11:15;;;;;;;4.25;1.70;;;15.20;99.90;;;;;;5113677;28;20039;-74
2023/05/08 02:13:43;;;;;;;3.97;1.75;;;15.20;99.90;;;;;;5113164;28;20127;-74
2023/05/08 02:16:11;;;;;;;4.72;1.70;;;15.20;99.90;;;;;;5113661;28;20484;-72
2023/05/08 02:18:39;;;;;;;4.90;1.58;;;15.20;99.90;;;;;;5113445;28;20853;-74
2023/05/08 02:21:06;;;;;;;5.88;1.70;;;15.20;99.90;;;;;;5113783;28;20080;-74
2023/05/08 02:23:33;;;;;;;4.97;1.80;;;15.20;99.90;;;;;;5113570;28;20039;-74
2023/05/08 02:26:01;;;;;;;3.95;1.83;;;15.20;99.90;;;;;;5113335;28;20047;-74
2023/05/08 02:28:28;;;;;;;2.60;1.50;;;15.20;99.90;;;;;;5113185;28;20534;-73
2023/05/08 02:30:55;;;;;;;5.40;1.50;;;15.20;99.90;;;;;;5113818;28;20019;-73
2023/05/08 02:33:22;;;;;;;2.28;1.40;;;15.20;99.90;;;;;;5113365;28;20036;-74
2023/05/08 02:35:49;;;;;;;6.07;1.90;;;15.20;99.90;;;;;;5113123;28;20500;-74
2023/05/08 02:38:18;;;;;;;4.15;1.70;;;15.20;99.90;;;;;;5113099;28;20553;-73
2023/05/08 02:40:51;;;;;;;4.28;1.70;;;15.10;99.90;;;;;;5112982;28;20486;-74
2023/05/08 02:43:17;;;;;;;3.55;1.42;;;15.10;99.90;;;;;;5112752;28;20039;-73
2023/05/08 02:45:59;;;;;;;4.47;1.50;;;15.10;99.90;;;;;;5112241;28;20028;-74
2023/05/08 02:48:35;;;;;;;4.38;1.70;;;15.00;99.90;;;;;;5112853;28;20495;-74
2023/05/08 02:51:26;;;;;;;2.80;1.55;;;15.10;99.90;;;;;;5112788;28;20084;-74
2023/05/08 02:54:08;;;;;;;4.05;1.67;;;15.10;99.90;;;;;;5112774;28;20038;-74
2023/05/08 02:56:39;;;;;;;3.08;1.50;;;15.10;99.90;;;;;;5112561;28;20023;-74
2023/05/08 02:59:08;;;;;;;3.70;1.75;;;15.00;99.90;;;;;;5113015;28;20028;-74
2023/05/08 03:02:08;;;;;;;5.57;1.70;;;15.00;99.90;;;;;;5112607;28;20027;-74
2023/05/08 03:04:40;;;;;;;3.00;1.52;;;15.00;99.90;;;;;;5112722;28;20031;-73
2023/05/08 03:07:05;;;;;;;4.85;1.90;;;15.00;99.90;;;;;;5112386;28;20027;-73
2023/05/08 03:09:47;;;;;;;5.00;1.63;;;14.90;99.90;;;;;;5112603;28;20034;-74
2023/05/08 03:12:22;;;;;;;5.70;2.08;;;15.00;99.90;;;;;;5112220;28;20048;-74
2023/05/08 03:15:01;;;;;;;4.53;2.00;;;14.90;99.90;;;;;;5112721;28;20051;-74
2023/05/08 03:17:30;;;;;;;3.70;1.60;;;14.90;99.90;;;;;;5112774;28;20031;-73
2023/05/08 03:19:59;;;;;;;4.78;1.50;;;14.90;99.90;;;;;;5112286;28;20031;-74
2023/05/08 03:22:27;;;;;;;4.57;1.60;;;14.80;99.90;;;;;;5112108;28;20042;-74
2023/05/08 03:24:55;;;;;;;3.53;1.90;;;14.90;99.90;;;;;;5111692;28;20055;-73
2023/05/08 03:27:22;;;;;;;4.75;2.03;;;14.90;99.90;;;;;;5112287;28;20039;-74
2023/05/08 03:29:51;;;;;;;4.80;1.60;;;14.90;99.90;;;;;;5112374;28;20023;-74
2023/05/08 03:32:18;;;;;;;3.63;1.80;;;14.80;99.90;;;;;;5112490;28;20027;-74
2023/05/08 03:34:45;;;;;;;4.70;2.03;;;14.80;99.90;;;;;;5112227;28;20039;-74
2023/05/08 03:37:11;;;;;;;3.40;1.75;;;14.90;99.90;;;;;;5111959;28;20035;-74
2023/05/08 03:39:36;;;;;;;3.08;1.83;;;14.90;99.90;;;;;;5111743;28;20102;-73
2023/05/08 03:42:02;;;;;;;4.22;1.80;;;14.80;99.90;;;;;;5111974;28;20030;-75
2023/05/08 03:44:29;;;;;;;4.95;1.73;;;14.80;99.90;;;;;;5094031;28;20031;-73
2023/05/08 03:46:57;;;;;;;3.20;1.50;;;14.80;99.90;;;;;;5111852;28;20023;-74
2023/05/08 03:49:25;;;;;;;5.13;1.60;;;14.80;99.90;;;;;;5112168;28;20031;-74
2023/05/08 03:51:54;;;;;;;5.00;1.92;;;14.80;99.90;;;;;;5111864;28;20080;-73
2023/05/08 03:54:24;;;;;;;4.47;1.80;;;14.80;99.90;;;;;;5111431;28;20035;-73
2023/05/08 03:56:50;;;;;;;4.03;1.70;;;14.80;99.90;;;;;;5093309;28;20423;-73
2023/05/08 03:59:26;;;;;;;4.57;2.00;;;14.90;99.90;;;;;;5111879;28;20032;-73
2023/05/08 04:02:16;;;;;;;3.78;1.70;;;14.80;99.90;;;;;;5112048;28;20107;-74
2023/05/08 04:04:44;;;;;;;3.25;1.70;;;14.90;99.90;;;;;;5049122;28;20040;-74
2023/05/08 04:07:34;;;;;;;5.35;1.80;;;14.90;99.90;;;;;;5048727;28;20029;-73
2023/05/08 04:10:10;;;;;;;7.75;2.38;;;14.90;99.90;;;;;;5048647;28;20037;-75
2023/05/08 04:13:14;;;;;;;3.95;1.70;;;14.90;99.90;;;;;;5048737;28;20057;-72
2023/05/08 04:15:50;;;;;;;6.35;2.15;;;14.90;99.90;;;;;;5049071;28;20063;-73
2023/05/08 04:18:21;;;;;;;5.43;2.05;;;14.90;99.90;;;;;;5048676;28;20833;-74
2023/05/08 04:20:49;;;;;;;5.00;1.90;;;14.90;99.90;;;;;;5048685;28;20024;-74
2023/05/08 04:23:20;;;;;;;3.88;1.80;;;14.90;99.90;;;;;;5048236;28;20581;-73
2023/05/08 04:25:48;;;;;;;4.60;1.60;;;15.00;99.90;;;;;;5048737;28;20490;-74
2023/05/08 04:28:15;;;;;;;5.20;1.83;;;15.00;99.90;;;;;;5049094;28;20497;-74
2023/05/08 04:30:41;;;;;;;5.38;1.80;;;14.90;99.90;;;;;;5048803;28;20037;-73
2023/05/08 04:33:08;;;;;;;3.08;1.95;;;15.00;99.90;;;;;;5048481;28;20089;-74
2023/05/08 04:35:33;;;;;;;4.55;1.92;;;15.00;99.90;;;;;;5048478;28;20529;-74
2023/05/08 04:37:59;;;;;;;5.85;2.17;;;15.00;99.90;;;;;;5048546;28;20033;-74
2023/05/08 04:40:25;;;;;;;4.32;1.88;;;15.00;99.90;;;;;;5048497;28;20053;-74
2023/05/08 04:42:51;;;;;;;4.55;1.80;;;15.00;99.90;;;;;;5108942;28;20052;-74
2023/05/08 04:45:17;;;;;;;5.05;1.80;;;15.00;99.90;;;;;;5111532;28;20073;-72
2023/05/08 04:47:42;;;;;;;2.83;1.70;;;15.00;99.90;;;;;;5111413;28;20567;-74
2023/05/08 04:50:09;;;;;;;5.15;1.80;;;15.00;99.90;;;;;;5111621;28;20020;-73
2023/05/08 04:52:34;;;;;;;4.97;1.90;;;15.00;99.90;;;;;;5110842;28;20511;-73
2023/05/08 04:55:00;;;;;;;4.47;2.00;;;15.00;99.90;;;;;;5111131;28;20024;-73
2023/05/08 04:57:26;;;;;;;5.88;1.95;;;15.00;99.90;;;;;;5111771;28;20036;-74
2023/05/08 04:59:51;;;;;;;5.53;2.05;;;15.00;99.90;;;;;;5093005;28;20027;-74
2023/05/08 05:02:17;;;;;;;5.32;1.85;;;15.00;99.90;;;;;;5111301;28;20032;-74
2023/05/08 05:04:43;;;;;;;5.13;2.30;;;15.00;99.90;;;;;;5111156;28;20049;-74
2023/05/08 05:07:09;;;;;;;6.20;2.30;;;15.00;99.90;;;;;;5110977;28;20024;-73
2023/05/08 05:09:35;;;;;;;4.72;1.92;;;15.00;99.90;;;;;;5114127;28;20497;-75
2023/05/08 05:12:06;;;;;;;5.90;1.92;;;15.00;99.90;;;;;;5114926;28;20059;-73
2023/05/08 05:14:31;;;;;;;4.70;2.00;;;15.00;99.90;;;;;;5114748;28;20117;-74
2023/05/08 05:16:57;;;;;;;5.18;2.20;;;15.00;99.90;;;;;;5114674;28;20024;-74
2023/05/08 05:19:23;;;;;;;4.88;2.15;;;15.00;99.90;;;;;;5114703;28;20034;-74
2023/05/08 05:21:48;;;;;;;5.07;1.88;;;15.10;99.90;;;;;;5114247;28;20098;-74
2023/05/08 05:24:14;;;;;;;3.28;1.80;;;15.10;99.90;;;;;;5114588;28;20039;-74
2023/05/08 05:26:40;;;;;;;5.85;1.88;;;15.10;99.90;;;;;;5114932;28;20023;-74
2023/05/08 05:29:06;;;;;;;4.38;1.95;;;15.10;99.90;;;;;;5114536;28;20388;-74
2023/05/08 05:31:32;;;;;;;4.78;2.03;;;15.10;99.90;;;;;;5114522;28;20024;-74
2023/05/08 05:33:58;;;;;;;7.70;2.55;;;15.10;99.90;;;;;;5114401;28;20027;-74
2023/05/08 05:36:24;;;;;;;5.03;2.17;;;15.20;99.90;;;;;;5114154;28;20024;-74
2023/05/08 05:38:49;;;;;;;3.30;1.90;;;15.20;99.90;;;;;;5114551;28;20484;-74
2023/05/08 05:41:15;;;;;;;4.00;2.15;;;15.20;99.90;;;;;;5114415;28;20138;-74
2023/05/08 05:43:41;;;;;;;5.85;2.05;;;15.20;99.90;;;;;;5114129;28;20046;-74
2023/05/08 05:46:07;;;;;;;6.25;2.30;;;15.30;99.90;;;;;;5114342;28;20031;-74
2023/05/08 05:48:33;;;;;;;6.47;2.10;;;15.30;99.90;;;;;;5114043;28;20052;-74
2023/05/08 05:50:59;;;;;;;5.32;2.33;;;15.30;99.90;;;;;;5113683;28;20032;-75
2023/05/08 05:53:25;;;;;;;4.97;2.08;;;15.30;99.90;;;;;;5114567;28;20015;-73
2023/05/08 05:55:51;;;;;;;7.55;2.08;;;15.30;99.90;;;;;;5113964;28;20389;-74
2023/05/08 05:58:17;;;;;;;6.30;2.13;;;15.30;99.90;;;;;;5114168;28;20020;-74
2023/05/08 06:00:43;;;;;;;4.28;2.13;;;15.30;99.90;;;;;;5114103;28;20436;-74
2023/05/08 06:03:12;;;;;;;6.05;2.42;;;15.30;99.90;;;;;;5113765;28;20085;-74
2023/05/08 06:05:39;;;;;;;6.60;2.38;;;15.40;99.90;;;;;;5113443;28;20484;-74
2023/05/08 06:08:05;;;;;;;6.82;2.22;;;15.40;99.90;;;;;;5114169;28;20051;-74
2023/05/08 06:10:31;;;;;;;5.82;1.90;;;15.40;99.90;;;;;;5113959;28;20081;-74
2023/05/08 06:12:57;;;;;;;6.97;2.28;;;15.50;99.90;;;;;;5113441;28;20192;-74
2023/05/08 06:15:23;;;;;;;6.22;2.25;;;15.50;99.90;;;;;;5113574;28;20110;-74
2023/05/08 06:17:48;;;;;;;4.95;2.13;;;15.50;99.90;;;;;;5113942;28;20481;-74
2023/05/08 06:20:14;;;;;;;5.13;2.30;;;15.50;99.90;;;;;;5112110;28;20023;-75
2023/05/08 06:22:40;;;;;;;4.55;2.20;;;15.50;99.90;;;;;;5113490;28;20508;-74
2023/05/08 06:25:07;;;;;;;4.55;2.08;;;15.50;99.90;;;;;;5113529;28;20031;-76
2023/05/08 06:27:33;;;;;;;5.50;2.00;;;15.50;99.90;;;;;;5113815;28;20020;-77
2023/05/08 06:29:59;;;;;;;5.05;2.10;;;15.50;99.90;;;;;;5113442;28;20106;-80
2023/05/08 06:32:25;;;;;;;7.20;2.10;;;15.60;99.90;;;;;;5113287;28;20091;-80
2023/05/08 06:34:51;;;;;;;4.55;1.95;;;15.70;99.90;;;;;;5113056;28;20177;-80
2023/05/08 06:37:16;;;;;;;6.68;2.28;;;15.80;99.90;;;;;;5112404;28;20032;-80
2023/05/08 06:39:42;;;;;;;7.32;2.13;;;15.80;99.90;;;;;;5112325;28;20019;-80
2023/05/08 06:42:08;;;;;;;4.82;2.00;;;15.90;99.90;;;;;;5113158;28;20561;-80
2023/05/08 06:44:34;;;;;;;5.80;2.00;;;16.00;99.90;;;;;;5112794;28;20546;-80
2023/05/08 06:46:59;;;;;;;5.88;1.90;;;16.00;99.90;;;;;;5113082;28;20385;-80
2023/05/08 06:49:25;;;;;;;4.47;1.77;;;16.00;99.90;;;;;;5113043;28;20123;-80
2023/05/08 06:51:51;;;;;;;18.42;2.83;;;16.10;99.90;;;;;;5113389;28;20496;-79
2023/05/08 06:54:17;;;;;;;5.88;1.83;;;16.10;99.90;;;;;;5113786;28;20473;-79
2023/05/08 06:56:43;;;;;;;4.82;1.90;;;16.20;99.90;;;;;;5112949;28;20032;-80
2023/05/08 06:59:09;;;;;;;3.80;1.45;;;16.20;99.90;;;;;;5113050;28;20068;-79
2023/05/08 07:01:36;;;;;;;5.03;1.35;;;16.20;99.90;;;;;;5113530;28;20480;-80
2023/05/08 07:04:02;;;;;;;5.18;1.73;;;16.20;99.90;;;;;;5112602;28;20496;-79
2023/05/08 07:06:29;;;;;;;4.07;1.55;;;16.20;99.90;;;;;;5113195;28;20020;-79
2023/05/08 07:08:55;;;;;;;4.18;1.50;;;16.20;99.90;;;;;;5112893;28;20032;-79
2023/05/08 07:11:21;;;;;;;3.55;1.52;;;16.30;99.90;;;;;;5113127;28;20034;-78
2023/05/08 07:13:47;;;;;;;4.78;1.63;;;16.30;99.90;;;;;;5112937;28;20152;-78
2023/05/08 07:16:13;;;;;;;3.97;1.42;;;16.30;99.90;;;;;;5113150;28;20488;-80
2023/05/08 07:18:39;;;;;;;5.15;1.50;;;16.40;99.90;;;;;;5112941;28;20024;-79
2023/05/08 07:21:04;;;;;;;4.80;2.00;;;16.30;99.90;;;;;;5112234;28;20380;-80
2023/05/08 07:23:30;;;;;;;4.70;1.38;;;16.30;99.90;;;;;;5112109;28;20081;-79
2023/05/08 07:25:56;;;;;;;4.55;1.40;;;16.40;99.90;;;;;;5113120;28;20085;-80
2023/05/08 07:28:22;;;;;;;3.38;1.23;;;16.40;99.90;;;;;;5112840;28;20016;-80
2023/05/08 07:30:48;;;;;;;4.30;1.20;;;16.50;99.90;;;;;;5111783;28;20084;-77
2023/05/08 07:33:13;;;;;;;3.58;1.40;;;16.50;99.90;;;;;;5111893;28;20418;-76
2023/05/08 07:35:41;;;;;;;4.25;1.40;;;16.50;99.90;;;;;;5112543;28;20050;-77
2023/05/08 07:38:07;;;;;;;3.92;1.33;;;16.50;99.90;;;;;;5112458;28;20396;-77
2023/05/08 07:40:33;;;;;;;2.70;1.40;;;16.50;99.90;;;;;;5112899;28;20028;-78
2023/05/08 07:42:59;;;;;;;3.33;1.40;;;16.60;99.90;;;;;;5112232;28;20399;-76
2023/05/08 07:45:24;;;;;;;2.88;1.38;;;16.70;99.90;;;;;;5112562;28;20032;-77
2023/05/08 07:47:56;;;;;;;3.55;1.30;;;16.70;99.90;;;;;;5111888;28;20028;-77
2023/05/08 07:50:23;;;;;;;2.97;1.35;;;16.80;99.90;;;;;;5112093;28;20053;-77
2023/05/08 07:52:49;;;;;;;5.50;1.35;;;16.90;99.90;;;;;;5112420;28;20019;-77
2023/05/08 07:55:15;;;;;;;4.63;1.80;;;17.00;99.90;;;;;;5112104;28;20030;-77
2023/05/08 07:57:41;;;;;;;3.92;1.50;;;17.00;99.90;;;;;;5112029;28;20030;-77
2023/05/08 08:00:10;;;;;;;3.28;2.00;;;17.00;99.90;;;;;;5112309;28;20031;-77
2023/05/08 08:02:36;;;;;;;7.05;1.70;;;17.10;99.90;;;;;;5111383;28;20069;-77
2023/05/08 08:05:03;;;;;;;4.40;1.40;;;17.10;99.90;;;;;;5112206;28;20395;-77
2023/05/08 08:07:28;;;;;;;5.35;1.80;;;17.10;99.90;;;;;;5111778;28;20043;-77
2023/05/08 08:09:54;;;;;;;3.88;1.60;;;17.20;99.90;;;;;;5093321;28;20116;-78
2023/05/08 08:12:20;;;;;;;3.08;1.30;;;17.10;99.90;;;;;;5111865;28;20039;-78
2023/05/08 08:14:46;;;;;;;4.60;1.50;;;17.20;99.90;;;;;;5112317;28;20038;-78
2023/05/08 08:17:11;;;;;;;3.25;1.40;;;17.30;99.90;;;;;;5111343;28;20028;-78
2023/05/08 08:19:37;;;;;;;2.83;1.33;;;17.30;99.90;;;;;;5112035;28;20114;-77
2023/05/08 08:22:03;;;;;;;3.90;1.60;;;17.30;99.90;;;;;;5111613;28;20035;-78
2023/05/08 08:24:28;;;;;;;4.10;1.63;;;17.30;99.90;;;;;;5112124;28;20027;-78
2023/05/08 08:26:54;;;;;;;3.80;1.52;;;17.40;99.90;;;;;;5111820;28;20027;-78
2023/05/08 08:29:20;;;;;;;4.13;1.60;;;17.40;99.90;;;;;;5112330;28;20527;-77
2023/05/08 08:31:45;;;;;;;2.97;1.20;;;17.40;99.90;;;;;;5111915;28;20031;-77
2023/05/08 08:34:12;;;;;;;2.13;1.00;;;17.40;99.90;;;;;;5111425;28;20127;-78
2023/05/08 08:36:38;;;;;;;3.00;1.30;;;17.40;99.90;;;;;;5111989;28;20380;-77
2023/05/08 08:39:04;;;;;;;2.88;1.27;;;17.30;99.90;;;;;;5111385;28;20048;-77
2023/05/08 08:41:30;;;;;;;3.15;1.20;;;17.30;99.90;;;;;;5111828;28;20104;-78
2023/05/08 08:43:56;;;;;;;3.15;1.30;;;17.30;99.90;;;;;;5113564;28;20032;-77
2023/05/08 08:46:26;;;;;;;4.40;1.45;;;17.20;99.90;;;;;;5115833;28;20026;-77
2023/05/08 08:48:56;;;;;;;4.07;1.20;;;17.20;99.90;;;;;;5115507;28;20023;-78
2023/05/08 08:51:28;;;;;;;5.93;1.50;;;17.20;99.90;;;;;;5097089;28;20523;-78
2023/05/08 08:54:05;;;;;;;5.40;1.20;;;17.20;99.90;;;;;;5115433;28;20027;-78
2023/05/08 08:56:34;;;;;;;3.25;1.25;;;17.10;99.90;;;;;;5115102;28;20040;-78
2023/05/08 08:59:00;;;;;;;4.22;1.65;;;17.10;99.90;;;;;;5115249;28;20030;-78
2023/05/08 09:01:30;;;;;;;2.92;1.20;;;17.20;99.90;;;;;;5115300;28;20055;-78
2023/05/08 09:03:58;;;;;;;3.80;1.33;;;17.10;99.90;;;;;;5115262;28;20038;-77
2023/05/08 09:06:24;;;;;;;2.42;1.10;;;17.10;99.90;;;;;;5115328;28;20016;-77
2023/05/08 09:08:51;;;;;;;3.67;1.55;;;17.10;99.90;;;;;;5109616;28;20028;-77
2023/05/08 09:11:17;;;;;;;4.07;1.50;;;17.10;99.90;;;;;;5094960;28;20175;-78
2023/05/08 09:13:42;;;;;;;5.40;1.60;;;17.20;99.90;;;;;;5094568;28;20047;-78
2023/05/08 09:16:08;;;;;;;3.80;1.30;;;17.20;99.90;;;;;;5094627;28;20028;-78
2023/05/08 09:18:34;;;;;;;4.50;1.58;;;17.20;99.90;;;;;;5094961;28;20028;-78
2023/05/08 09:21:00;;;;;;;4.75;1.77;;;17.20;99.90;;;;;;5095039;28;20077;-78
2023/05/08 09:23:26;;;;;;;2.65;1.40;;;17.20;99.90;;;;;;5095192;28;20036;-78
2023/05/08 09:25:52;;;;;;;2.67;1.45;;;17.20;99.90;;;;;;5094095;28;20031;-78
2023/05/08 09:28:21;;;;;;;3.20;1.48;;;17.20;99.90;;;;;;5094177;28;20028;-79
2023/05/08 09:30:57;;;;;;;3.92;1.50;;;17.30;99.90;;;;;;5094492;28;20020;-78
2023/05/08 09:33:27;;;;;;;5.05;1.40;;;17.30;99.90;;;;;;5094099;28;20024;-78
2023/05/08 09:35:53;;;;;;;4.18;1.33;;;17.40;99.90;;;;;;5094140;28;20054;-77
2023/05/08 09:38:40;;;;;;;3.33;1.35;;;17.40;99.90;;;;;;5094210;28;20059;-77
2023/05/08 09:41:06;;;;;;;3.85;1.58;;;17.40;99.90;;;;;;5093932;28;20035;-78
2023/05/08 09:43:32;;;;;;;3.13;1.30;;;17.50;99.90;;;;;;5093782;28;20493;-77
2023/05/08 09:45:58;;;;;;;3.70;1.30;;;17.60;99.90;;;;;;5094007;28;20020;-77
2023/05/08 09:48:37;;;;;;;4.10;1.30;;;17.60;99.90;;;;;;5093840;28;20485;-77
2023/05/08 09:51:06;;;;;;;3.35;1.30;;;17.60;99.90;;;;;;5093800;28;20020;-77
2023/05/08 09:53:31;;;;;;;2.95;1.45;;;17.70;99.90;;;;;;5093521;28;20078;-77
2023/05/08 09:55:57;;;;;;;3.67;1.70;;;17.80;99.90;;;;;;5094011;28;20028;-77
2023/05/08 09:58:23;;;;;;;2.67;1.38;;;17.90;99.90;;;;;;5093722;28;20484;-78
2023/05/08 10:00:50;;;;;;;5.28;1.60;;;18.10;99.90;;;;;;5094112;28;20174;-77
2023/05/08 10:03:15;;;;;;;2.83;1.27;;;18.10;99.90;;;;;;5093686;28;20039;-77
2023/05/08 10:05:41;;;;;;;4.53;1.45;;;18.20;99.90;;;;;;5093742;28;20103;-77
2023/05/08 10:08:21;;;;;;;4.53;1.70;;;18.40;99.90;;;;;;5093662;28;20054;-77
2023/05/08 10:10:47;;;;;;;6.45;1.90;;;18.60;99.90;;;;;;5114059;28;20047;-77
2023/05/08 10:13:13;;;;;;;4.05;1.45;;;18.70;99.90;;;;;;5113345;28;20527;-77
2023/05/08 10:15:41;;;;;;;2.85;1.20;;;18.70;99.90;;;;;;5113926;28;20480;-77
2023/05/08 10:18:08;;;;;;;6.55;1.75;;;18.60;99.90;;;;;;5113834;28;20027;-77
2023/05/08 10:20:37;;;;;;;3.33;1.60;;;18.60;99.90;;;;;;5113845;28;20054;-76
2023/05/08 10:23:10;;;;;;;4.85;1.63;;;18.60;99.90;;;;;;5114064;28;20441;-77
2023/05/08 10:25:42;;;;;;;4.18;1.50;;;18.80;99.90;;;;;;5113102;28;20396;-77
2023/05/08 10:28:22;;;;;;;5.40;1.80;;;18.80;99.90;;;;;;5113622;28;20076;-77
2023/05/08 10:30:49;;;;;;;5.65;1.70;;;18.90;99.90;;;;;;5114038;28;20039;-74
2023/05/08 10:33:20;;;;;;;4.82;1.85;;;19.00;99.90;;;;;;5113463;28;20070;-73
2023/05/08 10:35:46;;;;;;;4.30;1.77;;;19.10;99.90;;;;;;5113324;28;20050;-73
2023/05/08 10:38:15;;;;;;;4.05;1.73;;;19.10;99.90;;;;;;5113288;28;20019;-73
2023/05/08 10:40:41;;;;;;;5.90;1.70;;;19.20;99.90;;;;;;5113433;28;20035;-73
2023/05/08 10:43:08;;;;;;;4.45;1.83;;;19.30;99.90;;;;;;5113101;28;20035;-73
2023/05/08 10:45:35;;;;;;;7.68;3.38;;;19.30;99.90;;;;;;5094763;28;20470;-72
2023/05/08 10:48:10;;;;;;;8.20;3.30;;;19.30;99.90;;;;;;5113166;28;20030;-73
2023/05/08 10:50:45;;;;;;;6.13;2.45;;;19.40;99.90;;;;;;5113566;28;20032;-73
2023/05/08 10:53:19;;;;;;;6.00;2.20;;;19.40;99.90;;;;;;5112982;28;20028;-73
2023/05/08 10:55:49;;;;;;;7.93;2.63;;;19.60;99.90;;;;;;5112491;28;20088;-73
2023/05/08 10:58:31;;;;;;;7.47;2.50;;;19.70;99.90;;;;;;5112806;28;20077;-73
2023/05/08 11:01:04;;;;;;;8.27;2.88;;;19.70;99.90;;;;;;5112909;28;20095;-73
2023/05/08 11:03:32;;;;;;;8.07;2.28;;;19.80;99.90;;;;;;5112813;28;20040;-74
2023/05/08 11:05:59;;;;;;;6.78;2.53;;;19.80;99.90;;;;;;5112355;28;20027;-74
2023/05/08 11:08:26;;;;;;;7.53;2.90;;;19.70;99.90;;;;;;5112372;28;20027;-72
2023/05/08 11:11:01;;;;;;;9.85;3.10;;;19.70;99.90;;;;;;5112273;28;20084;-73
2023/05/08 11:13:50;;;;;;;8.30;3.40;;;19.60;99.90;;;;;;5112368;28;20058;-73
2023/05/08 11:16:16;;;;;;;7.80;2.70;;;19.70;99.90;;;;;;5104365;28;20036;-73
2023/05/08 11:19:19;;;;;;;7.82;2.40;;;19.80;99.90;;;;;;5112538;28;20032;-73
2023/05/08 11:22:12;;;;;;;6.35;2.33;;;19.60;99.90;;;;;;5112138;28;20023;-72
2023/05/08 11:24:40;;;;;;;10.30;3.07;;;19.70;99.90;;;;;;5111729;28;20400;-73
2023/05/08 11:27:06;;;;;;;10.18;2.40;;;19.70;99.90;;;;;;5112187;28;20038;-74
2023/05/08 11:29:32;;;;;;;7.80;3.20;;;19.60;99.90;;;;;;5112553;28;20019;-73
2023/05/08 11:31:57;;;;;;;9.15;2.85;;;19.70;99.90;;;;;;5112339;28;20088;-74
2023/05/08 11:34:41;;;;;;;12.82;2.63;;;19.80;99.90;;;;;;5112135;28;20034;-73
2023/05/08 11:37:17;;;;;;;7.47;2.25;;;19.90;99.90;;;;;;5112055;28;20070;-73
2023/05/08 11:39:43;;;;;;;10.30;3.30;;;20.00;99.90;;;;;;5111996;28;20058;-73
2023/05/08 11:42:24;;;;;;;7.85;2.80;;;20.10;99.90;;;;;;5111651;28;20462;-72
2023/05/08 11:45:02;;;;;;;11.80;3.70;;;20.20;99.90;;;;;;5112385;28;20030;-73
2023/05/08 11:47:41;;;;;;;7.70;2.90;;;20.50;99.90;;;;;;5112053;28;20024;-73
2023/05/08 11:50:08;;;;;;;7.85;2.60;;;20.60;99.90;;;;;;5111649;28;20120;-73
2023/05/08 11:52:35;;;;;;;7.18;2.47;;;20.60;99.90;;;;;;5111509;28;20035;-73
2023/05/08 11:55:06;;;;;;;8.18;2.63;;;20.60;99.90;;;;;;5111727;28;20459;-73
2023/05/08 11:57:32;;;;;;;8.65;2.53;;;20.60;99.90;;;;;;5111970;28;20023;-73
2023/05/08 12:00:05;;;;;;;9.10;2.50;;;20.50;99.90;;;;;;5112163;28;20396;-72
2023/05/08 12:02:38;;;;;;;7.30;2.55;;;20.70;99.90;;;;;;5111600;28;20031;-72
2023/05/08 12:05:04;;;;;;;6.95;2.40;;;20.70;99.90;;;;;;5111533;28;20039;-73
2023/05/08 12:07:30;;;;;;;8.32;2.58;;;20.90;99.90;;;;;;5111383;28;20047;-73
2023/05/08 12:09:56;;;;;;;8.23;2.40;;;20.80;99.90;;;;;;5111849;28;20502;-73
2023/05/08 12:12:21;;;;;;;7.20;2.50;;;20.90;99.90;;;;;;5111482;28;20043;-73
2023/05/08 12:14:51;;;;;;;5.65;2.67;;;21.10;99.90;;;;;;5111702;28;20048;-74
2023/05/08 12:17:19;;;;;;;8.50;3.03;;;21.10;99.90;;;;;;5113129;28;20416;-73
2023/05/08 12:19:45;;;;;;;7.38;3.00;;;21.20;99.90;;;;;;5115650;28;20133;-72
2023/05/08 12:22:11;;;;;;;11.15;3.35;;;21.20;99.90;;;;;;5115601;28;20118;-73
2023/05/08 12:24:38;;;;;;;15.07;7.63;;;21.10;99.90;;;;;;5115735;28;20043;-73
2023/05/08 12:27:04;;;;;;;9.02;3.75;;;21.10;99.90;;;;;;5115544;28;20157;-72
2023/05/08 12:29:34;;;;;;;8.02;3.20;;;21.20;99.90;;;;;;5116397;28;20110;-73
2023/05/08 12:31:59;;;;;;;7.28;2.72;;;21.50;99.90;;;;;;5115611;28;20031;-73
2023/05/08 12:34:25;;;;;;;7.20;2.70;;;21.70;99.90;;;;;;5115422;28;20476;-73
2023/05/08 12:37:02;;;;;;;8.73;2.92;;;21.70;99.90;;;;;;5115581;28;20040;-73
2023/05/08 12:39:27;;;;;;;8.32;2.40;;;21.70;99.90;;;;;;5115877;28;20024;-73
2023/05/08 12:41:53;;;;;;;7.80;2.45;;;21.70;99.90;;;;;;5115176;28;20511;-72
2023/05/08 12:44:22;;;;;;;6.07;2.30;;;21.70;99.90;;;;;;5115261;28;20039;-72
2023/05/08 12:47:06;;;;;;;8.38;2.80;;;21.70;99.90;;;;;;5115334;28;20026;-73
2023/05/08 12:49:31;;;;;;;8.50;2.50;;;21.50;99.90;;;;;;5115281;28;20023;-72
2023/05/08 12:52:05;;;;;;;8.05;2.40;;;21.40;99.90;;;;;;5114909;28;20107;-72
2023/05/08 12:54:37;;;;;;;8.32;2.40;;;21.50;99.90;;;;;;5115164;28;20520;-72
2023/05/08 12:57:15;;;;;;;8.75;2.50;;;21.50;99.90;;;;;;5115145;28;20031;-73
2023/05/08 12:59:42;;;;;;;7.47;2.58;;;21.70;99.90;;;;;;5115182;28;20016;-72